METAR Data
IDs: Format: Raw Decoded Include TAF

Data at: 2349 UTC 24 Apr 2019

METAR for:KAXA (Algona Muni, IA, US)
Text:KAXA 242335Z AUTO 21011KT 10SM CLR 23/03 A2973 RMK AO2 PWINO
Temperature: 23.0°C ( 73°F)
Dewpoint: 3.0°C ( 37°F) [RH = 27%]
Pressure (altimeter):29.73 inches Hg (1006.9 mb)
Winds:from the SSW (210 degrees) at 13 MPH (11 knots; 5.7 m/s)
Visibility:10 or more sm (16+ km)
Ceiling:at least 12,000 feet AGL
Clouds:sky clear below 12,000 feet AGL
QC Flag:automated observation with no human augmentation